Data Viewer
| City | State | Eastern Time | Source | Temp | DewPt | RH | BP | 5 Min Precip | Wind Speed | Wind Dir | 5 Min Wind Max | 5 Min Wind Max Dir |
|---|---|---|---|---|---|---|---|---|---|---|---|---|
| Chester Springs | PA | 2026-05-08 07:30 | DEOS | 44 | 40 | 85 | 29.97 | 0.00 | 1 | SSE | 2 | |
| Chester Springs | PA | 2026-05-08 20:40 | DEOS | 59 | 41 | 50 | 29.92 | 0.00 | 1 | SSE | 2 | |
| Chester Springs | PA | 2026-05-08 19:45 | DEOS | 63 | 36 | 36 | 29.90 | 0.00 | 1 | SW | 3 | |
| Chester Springs | PA | 2026-05-08 19:50 | DEOS | 63 | 36 | 36 | 29.91 | 0.00 | 1 | SSW | 2 | |
| Chester Springs | PA | 2026-05-08 19:55 | DEOS | 63 | 36 | 36 | 29.91 | 0.00 | 0 | W | 2 | |
| Chester Springs | PA | 2026-05-08 20:00 | DEOS | 63 | 37 | 38 | 29.91 | 0.00 | 0 | SSW | 2 | |
| Chester Springs | PA | 2026-05-08 20:05 | DEOS | 62 | 38 | 40 | 29.89 | 0.00 | 1 | SSE | 2 | |
| Chester Springs | PA | 2026-05-08 20:10 | DEOS | 61 | 38 | 43 | 29.89 | 0.00 | 1 | SSE | 2 | |
| Chester Springs | PA | 2026-05-08 20:15 | DEOS | 61 | 38 | 42 | 29.90 | 0.00 | 1 | S | 2 | |
| Chester Springs | PA | 2026-05-08 20:20 | DEOS | 60 | 38 | 43 | 29.89 | 0.00 | 1 | S | 2 | |
| Chester Springs | PA | 2026-05-08 20:25 | DEOS | 60 | 38 | 43 | 29.89 | 0.00 | 1 | S | 2 | |
| Chester Springs | PA | 2026-05-08 20:30 | DEOS | 60 | 40 | 46 | 29.90 | 0.00 | 1 | S | 2 | |
| Chester Springs | PA | 2026-05-08 20:35 | DEOS | 60 | 42 | 53 | 29.91 | 0.00 | 1 | SSE | 1 | |
| Chester Springs | PA | 2026-05-08 20:45 | DEOS | 59 | 41 | 51 | 29.91 | 0.00 | 2 | SSE | 2 | |
| Chester Springs | PA | 2026-05-08 19:35 | DEOS | 63 | 36 | 36 | 29.90 | 0.00 | 2 | SW | 4 | |
| Chester Springs | PA | 2026-05-08 20:50 | DEOS | 58 | 42 | 55 | 29.91 | 0.00 | 2 | SSE | 2 | |
| Chester Springs | PA | 2026-05-08 20:55 | DEOS | 58 | 44 | 60 | 29.92 | 0.00 | 2 | SSE | 2 | |
| Chester Springs | PA | 2026-05-08 21:00 | DEOS | 58 | 45 | 61 | 29.92 | 0.00 | 2 | SSE | 2 | |
| Chester Springs | PA | 2026-05-08 21:05 | DEOS | 58 | 45 | 62 | 29.91 | 0.00 | 2 | SSE | 2 | |
| Chester Springs | PA | 2026-05-08 21:10 | DEOS | 57 | 44 | 60 | 29.93 | 0.00 | 2 | SSE | 2 | |
| Chester Springs | PA | 2026-05-08 21:15 | DEOS | 57 | 44 | 60 | 29.93 | 0.00 | 2 | SSE | 2 | |
| Chester Springs | PA | 2026-05-08 21:20 | DEOS | 57 | 43 | 60 | 29.93 | 0.00 | 2 | SSE | 2 | |
| Chester Springs | PA | 2026-05-08 21:25 | DEOS | 57 | 44 | 61 | 29.93 | 0.00 | 2 | SSE | 2 | |
| Chester Springs | PA | 2026-05-08 21:30 | DEOS | 57 | 43 | 60 | 29.93 | 0.00 | 2 | SSE | 3 | |
| Chester Springs | PA | 2026-05-08 21:35 | DEOS | 56 | 44 | 63 | 29.93 | 0.00 | 1 | SSE | 2 | |
| Chester Springs | PA | 2026-05-08 21:40 | DEOS | 56 | 44 | 63 | 29.93 | 0.00 | 2 | SSE | 2 | |
| Chester Springs | PA | 2026-05-08 21:45 | DEOS | 56 | 44 | 64 | 29.94 | 0.00 | 2 | SE | 2 | |
| Chester Springs | PA | 2026-05-08 19:40 | DEOS | 63 | 36 | 36 | 29.88 | 0.00 | 1 | SW | 2 | |
| Chester Springs | PA | 2026-05-08 19:30 | DEOS | 63 | 37 | 38 | 29.88 | 0.00 | 2 | SW | 6 | |
| Chester Springs | PA | 2026-05-08 21:55 | DEOS | 56 | 46 | 70 | 29.94 | 0.00 | 2 | SE | 2 | |
| Chester Springs | PA | 2026-05-08 18:15 | DEOS | 65 | 36 | 34 | 29.89 | 0.00 | 4 | NNW | 7 | |
| Chester Springs | PA | 2026-05-08 17:20 | DEOS | 64 | 35 | 34 | 29.88 | 0.00 | 4 | NW | 8 | |
| Chester Springs | PA | 2026-05-08 17:25 | DEOS | 64 | 36 | 34 | 29.89 | 0.00 | 3 | NW | 6 | |
| Chester Springs | PA | 2026-05-08 17:30 | DEOS | 64 | 35 | 34 | 29.89 | 0.00 | 3 | NW | 9 | |
| Chester Springs | PA | 2026-05-08 17:35 | DEOS | 65 | 35 | 34 | 29.89 | 0.00 | 2 | NW | 7 | |
| Chester Springs | PA | 2026-05-08 17:40 | DEOS | 64 | 37 | 36 | 29.89 | 0.00 | 3 | N | 5 | |
| Chester Springs | PA | 2026-05-08 17:45 | DEOS | 64 | 37 | 36 | 29.87 | 0.00 | 2 | NNW | 3 | |
| Chester Springs | PA | 2026-05-08 17:50 | DEOS | 64 | 36 | 35 | 29.87 | 0.00 | 2 | NW | 6 | |
| Chester Springs | PA | 2026-05-08 17:55 | DEOS | 64 | 37 | 35 | 29.89 | 0.00 | 3 | N | 6 | |
| Chester Springs | PA | 2026-05-08 18:00 | DEOS | 64 | 35 | 34 | 29.89 | 0.00 | 5 | WNW | 13 | |
| Chester Springs | PA | 2026-05-08 18:05 | DEOS | 64 | 35 | 33 | 29.89 | 0.00 | 4 | W | 14 | |
| Chester Springs | PA | 2026-05-08 18:10 | DEOS | 64 | 35 | 33 | 29.89 | 0.00 | 5 | WNW | 9 | |
| Chester Springs | PA | 2026-05-08 18:20 | DEOS | 65 | 36 | 34 | 29.89 | 0.00 | 4 | NNW | 9 | |
| Chester Springs | PA | 2026-05-08 19:25 | DEOS | 62 | 37 | 38 | 29.87 | 0.00 | 0 | NW | 1 | |
| Chester Springs | PA | 2026-05-08 18:25 | DEOS | 64 | 36 | 35 | 29.89 | 0.00 | 3 | NNW | 8 | |
| Chester Springs | PA | 2026-05-08 18:30 | DEOS | 64 | 36 | 35 | 29.89 | 0.00 | 2 | WNW | 4 | |
| Chester Springs | PA | 2026-05-08 18:35 | DEOS | 64 | 37 | 36 | 29.89 | 0.00 | 2 | NW | 6 | |
| Chester Springs | PA | 2026-05-08 18:40 | DEOS | 64 | 36 | 35 | 29.89 | 0.00 | 1 | NW | 4 | |
| Chester Springs | PA | 2026-05-08 18:45 | DEOS | 64 | 36 | 35 | 29.89 | 0.00 | 2 | NW | 7 | |
| Chester Springs | PA | 2026-05-08 18:50 | DEOS | 64 | 36 | 35 | 29.89 | 0.00 | 2 | NNW | 5 | |
| Chester Springs | PA | 2026-05-08 18:55 | DEOS | 64 | 36 | 35 | 29.89 | 0.00 | 1 | NNW | 4 | |
| Chester Springs | PA | 2026-05-08 19:00 | DEOS | 64 | 36 | 36 | 29.87 | 0.00 | 1 | W | 4 | |
| Chester Springs | PA | 2026-05-08 19:05 | DEOS | 64 | 36 | 35 | 29.89 | 0.00 | 0 | NW | 2 | |
| Chester Springs | PA | 2026-05-08 19:10 | DEOS | 64 | 37 | 37 | 29.89 | 0.00 | 1 | S | 2 | |
| Chester Springs | PA | 2026-05-08 19:15 | DEOS | 63 | 37 | 38 | 29.89 | 0.00 | 1 | SSE | 2 | |
| Chester Springs | PA | 2026-05-08 19:20 | DEOS | 63 | 37 | 39 | 29.89 | 0.00 | 0 | N | 1 | |
| Chester Springs | PA | 2026-05-08 21:50 | DEOS | 56 | 45 | 65 | 29.94 | 0.00 | 2 | SE | 3 | |
| Chester Springs | PA | 2026-05-08 22:00 | DEOS | 56 | 44 | 65 | 29.94 | 0.00 | 2 | SSE | 3 | |
| Chester Springs | PA | 2026-05-08 17:10 | DEOS | 65 | 36 | 33 | 29.88 | 0.00 | 3 | NW | 8 | |
| Chester Springs | PA | 2026-05-09 01:30 | DEOS | 56 | 46 | 69 | 29.94 | 0.00 | 1 | SSE | 2 | |
| Chester Springs | PA | 2026-05-09 00:35 | DEOS | 55 | 47 | 73 | 29.94 | 0.00 | 2 | SSE | 2 | |
| Chester Springs | PA | 2026-05-09 00:40 | DEOS | 55 | 47 | 75 | 29.95 | 0.00 | 1 | SSE | 2 | |
| Chester Springs | PA | 2026-05-09 00:45 | DEOS | 55 | 47 | 75 | 29.94 | 0.00 | 0 | SE | 1 | |
| Chester Springs | PA | 2026-05-09 00:50 | DEOS | 55 | 47 | 75 | 29.94 | 0.00 | 1 | SSE | 2 | |
| Chester Springs | PA | 2026-05-09 00:55 | DEOS | 55 | 47 | 77 | 29.95 | 0.00 | 2 | S | 2 | |
| Chester Springs | PA | 2026-05-09 01:00 | DEOS | 55 | 47 | 77 | 29.94 | 0.00 | 2 | S | 3 | |
| Chester Springs | PA | 2026-05-09 01:05 | DEOS | 55 | 47 | 74 | 29.93 | 0.00 | 2 | SSW | 4 | |
| Chester Springs | PA | 2026-05-09 01:10 | DEOS | 56 | 47 | 72 | 29.94 | 0.00 | 1 | SSE | 3 | |
| Chester Springs | PA | 2026-05-09 01:15 | DEOS | 55 | 47 | 74 | 29.94 | 0.00 | 2 | S | 3 | |
| Chester Springs | PA | 2026-05-09 01:20 | DEOS | 55 | 46 | 72 | 29.93 | 0.00 | 2 | SSW | 3 | |
| Chester Springs | PA | 2026-05-09 01:25 | DEOS | 56 | 45 | 66 | 29.93 | 0.00 | 1 | SSW | 2 | |
| Chester Springs | PA | 2026-05-09 01:35 | DEOS | 55 | 46 | 72 | 29.92 | 0.00 | 1 | S | 2 | |
| Chester Springs | PA | 2026-05-09 00:25 | DEOS | 55 | 47 | 74 | 29.94 | 0.00 | 2 | SSE | 3 | |
| Chester Springs | PA | 2026-05-09 01:40 | DEOS | 56 | 45 | 68 | 29.92 | 0.00 | 1 | SW | 2 | |
| Chester Springs | PA | 2026-05-09 01:45 | DEOS | 56 | 45 | 66 | 29.94 | 0.00 | 0 | S | 1 | |
| Chester Springs | PA | 2026-05-09 01:50 | DEOS | 55 | 45 | 69 | 29.92 | 0.00 | 1 | SSE | 2 | |
| Chester Springs | PA | 2026-05-09 01:55 | DEOS | 55 | 46 | 71 | 29.92 | 0.00 | 0 | S | 1 | |
| Chester Springs | PA | 2026-05-09 02:00 | DEOS | 55 | 45 | 70 | 29.92 | 0.00 | 1 | S | 2 | |
| Chester Springs | PA | 2026-05-09 02:05 | DEOS | 55 | 44 | 68 | 29.91 | 0.00 | 0 | SSE | 1 | |
| Chester Springs | PA | 2026-05-09 02:10 | DEOS | 54 | 45 | 70 | 29.91 | 0.00 | 0 | SSE | 1 | |
| Chester Springs | PA | 2026-05-09 02:15 | DEOS | 54 | 44 | 71 | 29.91 | 0.00 | 1 | SSE | 1 | |
| Chester Springs | PA | 2026-05-09 02:20 | DEOS | 53 | 44 | 72 | 29.91 | 0.00 | 0 | SSE | 1 | |
| Chester Springs | PA | 2026-05-09 02:25 | DEOS | 53 | 44 | 73 | 29.91 | 0.00 | 1 | SSE | 2 | |
| Chester Springs | PA | 2026-05-09 02:30 | DEOS | 52 | 44 | 74 | 29.91 | 0.00 | 1 | SSE | 1 | |
| Chester Springs | PA | 2026-05-09 02:35 | DEOS | 52 | 45 | 76 | 29.91 | 0.00 | 1 | S | 2 | |
| Chester Springs | PA | 2026-05-09 00:30 | DEOS | 55 | 46 | 73 | 29.95 | 0.00 | 2 | S | 2 | |
| Chester Springs | PA | 2026-05-09 00:20 | DEOS | 55 | 47 | 74 | 29.94 | 0.00 | 2 | SSE | 2 | |
| Chester Springs | PA | 2026-05-08 22:05 | DEOS | 56 | 45 | 67 | 29.94 | 0.00 | 2 | SE | 2 | |
| Chester Springs | PA | 2026-05-08 23:05 | DEOS | 57 | 45 | 63 | 29.94 | 0.00 | 0 | NNE | 1 | |
| Chester Springs | PA | 2026-05-08 22:10 | DEOS | 55 | 46 | 71 | 29.94 | 0.00 | 2 | SE | 3 | |
| Chester Springs | PA | 2026-05-08 22:15 | DEOS | 55 | 45 | 69 | 29.94 | 0.00 | 2 | SE | 2 | |
| Chester Springs | PA | 2026-05-08 22:20 | DEOS | 56 | 46 | 70 | 29.93 | 0.00 | 2 | SE | 3 | |
| Chester Springs | PA | 2026-05-08 22:25 | DEOS | 56 | 43 | 60 | 29.94 | 0.00 | 2 | ESE | 3 | |
| Chester Springs | PA | 2026-05-08 22:30 | DEOS | 57 | 43 | 60 | 29.94 | 0.00 | 1 | NNE | 2 | |
| Chester Springs | PA | 2026-05-08 22:35 | DEOS | 56 | 44 | 65 | 29.94 | 0.00 | 0 | N | 1 | |
| Chester Springs | PA | 2026-05-08 22:40 | DEOS | 56 | 44 | 64 | 29.95 | 0.00 | 1 | S | 2 | |
| Chester Springs | PA | 2026-05-08 22:45 | DEOS | 56 | 44 | 65 | 29.95 | 0.00 | 2 | S | 2 | |
| Chester Springs | PA | 2026-05-08 22:50 | DEOS | 56 | 44 | 65 | 29.95 | 0.00 | 2 | S | 3 | |
| Chester Springs | PA | 2026-05-08 22:55 | DEOS | 57 | 44 | 60 | 29.94 | 0.00 | 1 | S | 2 | |
| Chester Springs | PA | 2026-05-08 23:00 | DEOS | 58 | 44 | 60 | 29.96 | 0.00 | 1 | SE | 2 | |
| Chester Springs | PA | 2026-05-08 23:10 | DEOS | 57 | 43 | 61 | 29.94 | 0.00 | 1 | NNE | 2 | |
| Chester Springs | PA | 2026-05-09 00:15 | DEOS | 55 | 46 | 73 | 29.94 | 0.00 | 2 | SSW | 3 | |
| Chester Springs | PA | 2026-05-08 23:15 | DEOS | 57 | 45 | 64 | 29.94 | 0.00 | 1 | E | 2 | |
| Chester Springs | PA | 2026-05-08 23:20 | DEOS | 56 | 43 | 61 | 29.95 | 0.00 | 0 | N | 0 | |
| Chester Springs | PA | 2026-05-08 23:25 | DEOS | 57 | 43 | 60 | 29.95 | 0.00 | 0 | ENE | 1 | |
| Chester Springs | PA | 2026-05-08 23:30 | DEOS | 56 | 46 | 66 | 29.93 | 0.00 | 2 | SSE | 3 | |
| Chester Springs | PA | 2026-05-08 23:35 | DEOS | 56 | 45 | 67 | 29.95 | 0.00 | 2 | SSW | 2 | |
| Chester Springs | PA | 2026-05-08 23:40 | DEOS | 56 | 45 | 65 | 29.94 | 0.00 | 0 | S | 2 | |
| Chester Springs | PA | 2026-05-08 23:45 | DEOS | 56 | 44 | 64 | 29.94 | 0.00 | 0 | NNE | 1 | |
| Chester Springs | PA | 2026-05-08 23:50 | DEOS | 56 | 45 | 67 | 29.94 | 0.00 | 1 | NNE | 1 | |
| Chester Springs | PA | 2026-05-08 23:55 | DEOS | 56 | 46 | 72 | 29.94 | 0.00 | 1 | ESE | 2 | |
| Chester Springs | PA | 2026-05-09 00:00 | DEOS | 55 | 47 | 73 | 29.93 | 0.00 | 2 | SSE | 2 | |
| Chester Springs | PA | 2026-05-09 00:05 | DEOS | 55 | 46 | 73 | 29.93 | 0.00 | 1 | SSE | 2 | |
| Chester Springs | PA | 2026-05-09 00:10 | DEOS | 55 | 47 | 74 | 29.93 | 0.00 | 1 | SSW | 1 | |
| Chester Springs | PA | 2026-05-08 17:15 | DEOS | 65 | 36 | 34 | 29.87 | 0.00 | 4 | NW | 11 | |
| Chester Springs | PA | 2026-05-08 17:05 | DEOS | 67 | 35 | 31 | 29.88 | 0.00 | 4 | WSW | 10 | |
| Chester Springs | PA | 2026-05-08 07:35 | DEOS | 46 | 40 | 81 | 29.97 | 0.00 | 0 | SSE | 1 | |
| Chester Springs | PA | 2026-05-08 11:00 | DEOS | 57 | 34 | 42 | 29.98 | 0.00 | 3 | WNW | 6 | |
| Chester Springs | PA | 2026-05-08 10:05 | DEOS | 56 | 35 | 44 | 29.99 | 0.00 | 3 | SW | 7 | |
| Chester Springs | PA | 2026-05-08 10:10 | DEOS | 56 | 33 | 42 | 29.99 | 0.00 | 4 | WNW | 9 | |
| Chester Springs | PA | 2026-05-08 10:15 | DEOS | 56 | 32 | 41 | 29.98 | 0.00 | 4 | W | 8 | |
| Chester Springs | PA | 2026-05-08 10:20 | DEOS | 56 | 31 | 38 | 29.99 | 0.00 | 2 | W | 5 | |
| Chester Springs | PA | 2026-05-08 10:25 | DEOS | 56 | 29 | 37 | 29.98 | 0.00 | 2 | NW | 6 | |
| Chester Springs | PA | 2026-05-08 10:30 | DEOS | 56 | 31 | 39 | 29.97 | 0.00 | 2 | NW | 6 | |
| Chester Springs | PA | 2026-05-08 10:35 | DEOS | 57 | 34 | 42 | 29.98 | 0.00 | 3 | SSW | 7 | |
| Chester Springs | PA | 2026-05-08 10:40 | DEOS | 58 | 35 | 42 | 29.98 | 0.00 | 4 | SSW | 10 | |
| Chester Springs | PA | 2026-05-08 10:45 | DEOS | 58 | 35 | 41 | 29.97 | 0.00 | 4 | WSW | 9 | |
| Chester Springs | PA | 2026-05-08 10:50 | DEOS | 58 | 35 | 42 | 29.98 | 0.00 | 5 | NW | 10 | |
| Chester Springs | PA | 2026-05-08 10:55 | DEOS | 57 | 34 | 42 | 29.96 | 0.00 | 2 | WNW | 5 | |
| Chester Springs | PA | 2026-05-08 11:05 | DEOS | 58 | 33 | 39 | 29.97 | 0.00 | 4 | NNW | 12 | |
| Chester Springs | PA | 2026-05-08 09:55 | DEOS | 57 | 35 | 44 | 29.98 | 0.00 | 4 | SSW | 9 | |
| Chester Springs | PA | 2026-05-08 11:10 | DEOS | 58 | 32 | 38 | 29.96 | 0.00 | 5 | WSW | 13 | |
| Chester Springs | PA | 2026-05-08 11:15 | DEOS | 57 | 32 | 37 | 29.98 | 0.00 | 5 | W | 12 | |
| Chester Springs | PA | 2026-05-08 11:20 | DEOS | 58 | 32 | 38 | 29.96 | 0.00 | 5 | W | 9 | |
| Chester Springs | PA | 2026-05-08 11:25 | DEOS | 59 | 34 | 40 | 29.96 | 0.00 | 4 | W | 12 | |
| Chester Springs | PA | 2026-05-08 11:30 | DEOS | 59 | 33 | 37 | 29.97 | 0.00 | 6 | W | 13 | |
| Chester Springs | PA | 2026-05-08 11:35 | DEOS | 59 | 33 | 37 | 29.97 | 0.00 | 5 | WNW | 12 | |
| Chester Springs | PA | 2026-05-08 11:40 | DEOS | 59 | 34 | 38 | 29.95 | 0.00 | 3 | SW | 14 | |
| Chester Springs | PA | 2026-05-08 11:45 | DEOS | 60 | 34 | 37 | 29.97 | 0.00 | 5 | W | 15 | |
| Chester Springs | PA | 2026-05-08 11:50 | DEOS | 61 | 35 | 38 | 29.97 | 0.00 | 4 | SW | 14 | |
| Chester Springs | PA | 2026-05-08 11:55 | DEOS | 61 | 34 | 36 | 29.97 | 0.00 | 5 | WSW | 10 | |
| Chester Springs | PA | 2026-05-08 12:00 | DEOS | 61 | 34 | 36 | 29.95 | 0.00 | 5 | WNW | 17 | |
| Chester Springs | PA | 2026-05-08 12:05 | DEOS | 62 | 34 | 36 | 29.97 | 0.00 | 4 | SSW | 11 | |
| Chester Springs | PA | 2026-05-08 10:00 | DEOS | 56 | 33 | 42 | 29.99 | 0.00 | 4 | SW | 8 | |
| Chester Springs | PA | 2026-05-08 09:50 | DEOS | 56 | 34 | 44 | 29.99 | 0.00 | 4 | SSW | 8 | |
| Chester Springs | PA | 2026-05-08 12:15 | DEOS | 61 | 34 | 36 | 29.96 | 0.00 | 6 | SSW | 11 | |
| Chester Springs | PA | 2026-05-08 08:35 | DEOS | 53 | 37 | 54 | 29.97 | 0.00 | 2 | WSW | 5 | |
| Chester Springs | PA | 2026-05-08 07:40 | DEOS | 47 | 40 | 76 | 29.97 | 0.00 | 2 | WSW | 4 | |
| Chester Springs | PA | 2026-05-08 07:45 | DEOS | 48 | 39 | 73 | 29.98 | 0.00 | 1 | SW | 2 | |
| Chester Springs | PA | 2026-05-08 07:50 | DEOS | 49 | 40 | 71 | 29.98 | 0.00 | 1 | S | 2 | |
| Chester Springs | PA | 2026-05-08 07:55 | DEOS | 50 | 40 | 69 | 29.98 | 0.00 | 1 | WSW | 3 | |
| Chester Springs | PA | 2026-05-08 08:00 | DEOS | 50 | 40 | 67 | 29.99 | 0.00 | 1 | SSW | 4 | |
| Chester Springs | PA | 2026-05-08 08:05 | DEOS | 51 | 40 | 66 | 29.97 | 0.00 | 2 | W | 5 | |
| Chester Springs | PA | 2026-05-08 08:10 | DEOS | 51 | 40 | 66 | 29.97 | 0.00 | 1 | WSW | 3 | |
| Chester Springs | PA | 2026-05-08 08:15 | DEOS | 52 | 39 | 61 | 29.99 | 0.00 | 1 | S | 2 | |
| Chester Springs | PA | 2026-05-08 08:20 | DEOS | 52 | 38 | 59 | 29.97 | 0.00 | 2 | W | 6 | |
| Chester Springs | PA | 2026-05-08 08:25 | DEOS | 53 | 38 | 57 | 29.99 | 0.00 | 1 | NW | 2 | |
| Chester Springs | PA | 2026-05-08 08:30 | DEOS | 53 | 38 | 56 | 29.97 | 0.00 | 1 | SW | 2 | |
| Chester Springs | PA | 2026-05-08 08:40 | DEOS | 53 | 38 | 55 | 30.00 | 0.00 | 2 | WNW | 4 | |
| Chester Springs | PA | 2026-05-08 09:45 | DEOS | 56 | 35 | 45 | 29.98 | 0.00 | 3 | WSW | 7 | |
| Chester Springs | PA | 2026-05-08 08:45 | DEOS | 54 | 37 | 53 | 29.98 | 0.00 | 1 | WSW | 4 | |
| Chester Springs | PA | 2026-05-08 08:50 | DEOS | 55 | 38 | 54 | 29.99 | 0.00 | 2 | S | 4 | |
| Chester Springs | PA | 2026-05-08 08:55 | DEOS | 55 | 37 | 51 | 29.99 | 0.00 | 2 | SW | 4 | |
| Chester Springs | PA | 2026-05-08 09:00 | DEOS | 55 | 35 | 48 | 29.99 | 0.00 | 2 | W | 5 | |
| Chester Springs | PA | 2026-05-08 09:05 | DEOS | 55 | 36 | 49 | 29.98 | 0.00 | 3 | S | 7 | |
| Chester Springs | PA | 2026-05-08 09:10 | DEOS | 54 | 35 | 49 | 29.99 | 0.00 | 3 | WSW | 7 | |
| Chester Springs | PA | 2026-05-08 09:15 | DEOS | 55 | 34 | 46 | 29.99 | 0.00 | 2 | W | 6 | |
| Chester Springs | PA | 2026-05-08 09:20 | DEOS | 54 | 35 | 49 | 29.99 | 0.00 | 2 | SW | 5 | |
| Chester Springs | PA | 2026-05-08 09:25 | DEOS | 54 | 34 | 48 | 29.99 | 0.00 | 3 | SSW | 5 | |
| Chester Springs | PA | 2026-05-08 09:30 | DEOS | 55 | 35 | 48 | 29.99 | 0.00 | 2 | WNW | 6 | |
| Chester Springs | PA | 2026-05-08 09:35 | DEOS | 55 | 35 | 46 | 29.99 | 0.00 | 2 | WSW | 4 | |
| Chester Springs | PA | 2026-05-08 09:40 | DEOS | 55 | 35 | 46 | 29.98 | 0.00 | 2 | NW | 6 | |
| Chester Springs | PA | 2026-05-08 12:10 | DEOS | 61 | 35 | 37 | 29.96 | 0.00 | 4 | WNW | 12 | |
| Chester Springs | PA | 2026-05-08 12:20 | DEOS | 62 | 35 | 37 | 29.96 | 0.00 | 4 | WSW | 9 | |
| Chester Springs | PA | 2026-05-08 17:00 | DEOS | 67 | 38 | 35 | 29.88 | 0.00 | 3 | WNW | 10 | |
| Chester Springs | PA | 2026-05-08 15:50 | DEOS | 65 | 35 | 32 | 29.90 | 0.00 | 4 | NW | 10 | |
| Chester Springs | PA | 2026-05-08 14:55 | DEOS | 64 | 34 | 32 | 29.92 | 0.00 | 3 | NW | 7 | |
| Chester Springs | PA | 2026-05-08 15:00 | DEOS | 64 | 34 | 33 | 29.92 | 0.00 | 4 | NW | 11 | |
| Chester Springs | PA | 2026-05-08 15:05 | DEOS | 64 | 34 | 32 | 29.91 | 0.00 | 5 | NW | 11 | |
| Chester Springs | PA | 2026-05-08 15:10 | DEOS | 64 | 33 | 32 | 29.90 | 0.00 | 5 | WNW | 12 | |
| Chester Springs | PA | 2026-05-08 15:15 | DEOS | 64 | 33 | 32 | 29.91 | 0.00 | 5 | W | 13 | |
| Chester Springs | PA | 2026-05-08 15:20 | DEOS | 64 | 34 | 32 | 29.91 | 0.00 | 4 | W | 12 | |
| Chester Springs | PA | 2026-05-08 15:25 | DEOS | 64 | 34 | 33 | 29.91 | 0.00 | 5 | WNW | 14 | |
| Chester Springs | PA | 2026-05-08 15:30 | DEOS | 64 | 35 | 33 | 29.91 | 0.00 | 7 | NNW | 18 | |
| Chester Springs | PA | 2026-05-08 15:35 | DEOS | 64 | 35 | 33 | 29.89 | 0.00 | 6 | NW | 16 | |
| Chester Springs | PA | 2026-05-08 15:40 | DEOS | 64 | 34 | 32 | 29.91 | 0.00 | 4 | NW | 11 | |
| Chester Springs | PA | 2026-05-08 15:45 | DEOS | 65 | 35 | 32 | 29.89 | 0.00 | 5 | WNW | 10 | |
| Chester Springs | PA | 2026-05-08 15:55 | DEOS | 65 | 35 | 33 | 29.91 | 0.00 | 3 | NW | 8 | |
| Chester Springs | PA | 2026-05-08 14:45 | DEOS | 64 | 34 | 34 | 29.92 | 0.00 | 3 | W | 9 | |
| Chester Springs | PA | 2026-05-08 16:00 | DEOS | 65 | 35 | 33 | 29.91 | 0.00 | 4 | NNW | 11 | |
| Chester Springs | PA | 2026-05-08 16:05 | DEOS | 64 | 35 | 34 | 29.89 | 0.00 | 3 | WNW | 9 | |
| Chester Springs | PA | 2026-05-08 16:10 | DEOS | 64 | 35 | 33 | 29.91 | 0.00 | 4 | W | 13 | |
| Chester Springs | PA | 2026-05-08 16:15 | DEOS | 64 | 34 | 32 | 29.91 | 0.00 | 7 | WSW | 15 | |
| Chester Springs | PA | 2026-05-08 16:20 | DEOS | 65 | 34 | 32 | 29.91 | 0.00 | 5 | W | 12 | |
| Chester Springs | PA | 2026-05-08 16:25 | DEOS | 65 | 35 | 32 | 29.91 | 0.00 | 6 | WNW | 12 | |
| Chester Springs | PA | 2026-05-08 16:30 | DEOS | 66 | 36 | 33 | 29.90 | 0.00 | 5 | W | 12 | |
| Chester Springs | PA | 2026-05-08 16:35 | DEOS | 67 | 37 | 33 | 29.88 | 0.00 | 4 | NNW | 8 | |
| Chester Springs | PA | 2026-05-08 16:40 | DEOS | 66 | 36 | 33 | 29.90 | 0.00 | 4 | NW | 10 | |
| Chester Springs | PA | 2026-05-08 16:45 | DEOS | 66 | 35 | 32 | 29.89 | 0.00 | 4 | WNW | 10 | |
| Chester Springs | PA | 2026-05-08 16:50 | DEOS | 66 | 35 | 31 | 29.89 | 0.00 | 4 | WNW | 8 | |
| Chester Springs | PA | 2026-05-08 16:55 | DEOS | 66 | 37 | 34 | 29.88 | 0.00 | 5 | NNW | 8 | |
| Chester Springs | PA | 2026-05-08 14:50 | DEOS | 64 | 33 | 32 | 29.92 | 0.00 | 6 | W | 17 | |
| Chester Springs | PA | 2026-05-08 14:40 | DEOS | 63 | 35 | 34 | 29.92 | 0.00 | 4 | WNW | 9 | |
| Chester Springs | PA | 2026-05-08 12:25 | DEOS | 62 | 35 | 37 | 29.95 | 0.00 | 6 | WSW | 20 | |
| Chester Springs | PA | 2026-05-08 13:25 | DEOS | 63 | 36 | 37 | 29.94 | 0.00 | 3 | SW | 9 | |
| Chester Springs | PA | 2026-05-08 12:30 | DEOS | 62 | 34 | 35 | 29.93 | 0.00 | 7 | WSW | 16 | |
| Chester Springs | PA | 2026-05-08 12:35 | DEOS | 61 | 33 | 35 | 29.94 | 0.00 | 8 | S | 14 | |
| Chester Springs | PA | 2026-05-08 12:40 | DEOS | 62 | 36 | 37 | 29.93 | 0.00 | 5 | W | 15 | |
| Chester Springs | PA | 2026-05-08 12:45 | DEOS | 63 | 36 | 36 | 29.94 | 0.00 | 4 | W | 8 | |
| Chester Springs | PA | 2026-05-08 12:50 | DEOS | 63 | 35 | 35 | 29.94 | 0.00 | 6 | NW | 14 | |
| Chester Springs | PA | 2026-05-08 12:55 | DEOS | 63 | 36 | 35 | 29.94 | 0.00 | 4 | NW | 13 | |
| Chester Springs | PA | 2026-05-08 13:00 | DEOS | 63 | 34 | 33 | 29.92 | 0.00 | 5 | W | 13 | |
| Chester Springs | PA | 2026-05-08 13:05 | DEOS | 63 | 33 | 32 | 29.92 | 0.00 | 7 | W | 18 | |
| Chester Springs | PA | 2026-05-08 13:10 | DEOS | 64 | 35 | 34 | 29.94 | 0.00 | 4 | SW | 10 | |
| Chester Springs | PA | 2026-05-08 13:15 | DEOS | 63 | 34 | 33 | 29.94 | 0.00 | 5 | NW | 13 | |
| Chester Springs | PA | 2026-05-08 13:20 | DEOS | 62 | 33 | 33 | 29.94 | 0.00 | 4 | NW | 8 | |
| Chester Springs | PA | 2026-05-08 13:30 | DEOS | 64 | 35 | 34 | 29.94 | 0.00 | 4 | WSW | 10 | |
| Chester Springs | PA | 2026-05-08 14:35 | DEOS | 63 | 34 | 33 | 29.90 | 0.00 | 5 | W | 14 | |
| Chester Springs | PA | 2026-05-08 13:35 | DEOS | 63 | 35 | 35 | 29.94 | 0.00 | 3 | NW | 9 | |
| Chester Springs | PA | 2026-05-08 13:40 | DEOS | 62 | 34 | 34 | 29.94 | 0.00 | 5 | WNW | 11 | |
| Chester Springs | PA | 2026-05-08 13:45 | DEOS | 64 | 37 | 37 | 29.91 | 0.00 | 4 | NW | 9 | |
| Chester Springs | PA | 2026-05-08 13:50 | DEOS | 65 | 36 | 34 | 29.91 | 0.00 | 4 | WNW | 11 | |
| Chester Springs | PA | 2026-05-08 13:55 | DEOS | 65 | 36 | 33 | 29.93 | 0.00 | 4 | WSW | 15 | |
| Chester Springs | PA | 2026-05-08 14:00 | DEOS | 65 | 35 | 32 | 29.93 | 0.00 | 5 | WNW | 20 | |
| Chester Springs | PA | 2026-05-08 14:05 | DEOS | 64 | 32 | 30 | 29.91 | 0.00 | 7 | WNW | 16 | |
| Chester Springs | PA | 2026-05-08 14:10 | DEOS | 64 | 34 | 32 | 29.90 | 0.00 | 6 | NW | 14 | |
| Chester Springs | PA | 2026-05-08 14:15 | DEOS | 65 | 34 | 31 | 29.91 | 0.00 | 6 | WNW | 11 | |
| Chester Springs | PA | 2026-05-08 14:20 | DEOS | 65 | 34 | 32 | 29.92 | 0.00 | 4 | WNW | 11 | |
| Chester Springs | PA | 2026-05-08 14:25 | DEOS | 64 | 34 | 32 | 29.90 | 0.00 | 4 | WSW | 11 | |
| Chester Springs | PA | 2026-05-08 14:30 | DEOS | 64 | 34 | 33 | 29.92 | 0.00 | 6 | WSW | 14 | |
| Chester Springs | PA | 2026-05-09 02:40 | DEOS | 52 | 44 | 76 | 29.91 | 0.00 | 1 | SSE | 2 |
data collection created in 0.045047998428345 (queried in 0.009139) rendered in: 0.00056004524230957

